createdAt,value
2023-05-05T00:02:35.594Z,53.31
2023-05-05T00:05:36.926Z,53.52
2023-05-05T00:08:38.306Z,52.95
2023-05-05T00:11:40.206Z,53.28
2023-05-05T00:14:41.647Z,53.12
2023-05-05T00:17:43.145Z,52.49
2023-05-05T00:20:46.355Z,53.24
2023-05-05T00:23:47.763Z,53.00
2023-05-05T00:26:50.312Z,53.59
2023-05-05T00:29:51.717Z,52.59
2023-05-05T00:32:54.417Z,53.18
2023-05-05T00:35:55.933Z,53.65
2023-05-05T00:38:57.202Z,53.03
2023-05-05T00:41:59.271Z,53.21
2023-05-05T00:45:01.370Z,53.88
2023-05-05T00:48:03.186Z,52.73
2023-05-05T00:51:08.465Z,53.15
2023-05-05T00:54:09.994Z,53.55
2023-05-05T00:57:12.190Z,53.70
2023-05-05T01:00:13.697Z,53.93
2023-05-05T01:03:15.341Z,53.84
2023-05-05T01:06:32.998Z,53.86
2023-05-05T01:09:44.654Z,53.30
2023-05-05T01:12:54.886Z,54.56
2023-05-05T01:16:04.149Z,53.87
2023-05-05T01:19:24.692Z,54.60
2023-05-05T01:22:33.494Z,54.25
2023-05-05T01:26:08.228Z,54.99
2023-05-05T01:29:31.182Z,54.78
2023-05-05T01:32:38.359Z,54.54
2023-05-05T01:35:43.441Z,54.83
2023-05-05T01:38:45.561Z,55.28
2023-05-05T01:41:48.763Z,55.47
2023-05-05T01:44:52.681Z,55.08
2023-05-05T01:47:55.879Z,55.48
2023-05-05T01:50:58.798Z,54.97
2023-05-05T01:54:04.031Z,55.79
2023-05-05T01:57:07.181Z,55.52
2023-05-05T02:00:11.129Z,55.47
2023-05-05T02:03:15.326Z,55.42
2023-05-05T02:06:19.017Z,55.78
2023-05-05T02:09:21.047Z,55.45
2023-05-05T02:12:23.285Z,55.55
2023-05-05T02:15:26.662Z,55.65
2023-05-05T02:18:30.270Z,55.44
2023-05-05T02:21:32.268Z,55.69
2023-05-05T02:24:34.029Z,56.08
2023-05-05T02:27:37.215Z,55.71
2023-05-05T02:30:40.042Z,55.82
2023-05-05T02:33:44.187Z,56.30
2023-05-05T02:36:47.431Z,57.18
2023-05-05T02:39:58.068Z,57.10
2023-05-05T02:43:03.619Z,56.74
2023-05-05T02:46:05.304Z,56.54
2023-05-05T02:49:07.345Z,56.80
2023-05-05T02:52:08.763Z,56.56
2023-05-05T02:55:10.737Z,56.73
2023-05-05T02:58:23.911Z,56.44
2023-05-05T03:01:32.402Z,57.25
2023-05-05T03:04:39.136Z,56.86
2023-05-05T03:07:48.634Z,56.68
2023-05-05T03:10:59.092Z,57.22
2023-05-05T03:14:07.069Z,56.96
2023-05-05T03:17:10.874Z,57.51
2023-05-05T03:20:14.554Z,57.75
2023-05-05T03:23:20.048Z,57.46
2023-05-05T03:26:21.402Z,57.31
2023-05-05T03:29:22.690Z,56.76
2023-05-05T03:32:24.053Z,57.06
2023-05-05T03:35:26.063Z,57.06
2023-05-05T03:38:27.298Z,56.90
2023-05-05T03:41:28.615Z,57.55
2023-05-05T03:44:29.967Z,56.69
2023-05-05T03:47:31.497Z,57.58
2023-05-05T03:50:33.639Z,58.00
2023-05-05T03:53:35.157Z,57.51
2023-05-05T03:56:36.480Z,57.92
2023-05-05T03:59:37.888Z,58.47
2023-05-05T04:02:39.244Z,58.26
2023-05-05T04:05:42.043Z,57.65
2023-05-05T04:08:43.512Z,57.63
2023-05-05T04:11:44.781Z,57.61
2023-05-05T04:14:46.202Z,57.72
2023-05-05T04:17:47.744Z,57.66
2023-05-05T04:20:49.856Z,57.52
2023-05-05T04:23:51.656Z,57.76
2023-05-05T04:26:53.565Z,55.95
2023-05-05T04:29:55.008Z,56.58
2023-05-05T04:32:56.409Z,56.83
2023-05-05T04:35:59.626Z,56.24
2023-05-05T04:39:01.094Z,55.92
2023-05-05T04:42:02.574Z,54.80
2023-05-05T04:45:04.516Z,55.01
2023-05-05T04:48:05.927Z,54.18
2023-05-05T04:51:08.100Z,54.14
2023-05-05T04:54:09.368Z,53.25
2023-05-05T04:57:10.771Z,53.04
2023-05-05T05:00:12.936Z,53.10
2023-05-05T05:03:14.322Z,53.09
2023-05-05T05:06:16.428Z,51.50
2023-05-05T05:09:17.959Z,50.43
2023-05-05T05:12:19.374Z,49.87
2023-05-05T05:15:20.910Z,49.02
2023-05-05T05:18:22.389Z,48.74
2023-05-05T05:21:24.340Z,48.18
2023-05-05T05:24:25.719Z,47.93
2023-05-05T05:27:27.015Z,48.20
2023-05-05T05:30:28.464Z,47.51
2023-05-05T05:33:31.614Z,46.72
2023-05-05T05:36:33.769Z,47.16
2023-05-05T05:39:35.691Z,46.92
2023-05-05T05:42:37.194Z,46.47
2023-05-05T05:45:38.525Z,46.43
2023-05-05T05:48:40.256Z,46.49
2023-05-05T05:51:42.222Z,46.07
2023-05-05T05:54:43.578Z,45.84
2023-05-05T05:57:44.898Z,45.25
2023-05-05T06:00:47.574Z,44.01
2023-05-05T06:03:48.912Z,43.09
2023-05-05T06:06:50.899Z,42.55
2023-05-05T06:09:52.228Z,43.51
2023-05-05T06:12:53.640Z,44.36
2023-05-05T06:15:55.036Z,43.42
2023-05-05T06:18:56.338Z,43.21
2023-05-05T06:21:58.450Z,43.94
2023-05-05T06:24:59.831Z,43.09
2023-05-05T06:28:01.469Z,41.31
2023-05-05T06:31:02.812Z,40.48
2023-05-05T06:34:04.172Z,39.99
2023-05-05T06:37:06.163Z,39.61
2023-05-05T06:40:09.694Z,38.42
2023-05-05T06:43:11.199Z,37.77
2023-05-05T06:46:12.691Z,38.73
2023-05-05T06:49:14.122Z,37.82
2023-05-05T06:52:16.084Z,37.29
2023-05-05T06:55:17.425Z,36.34
2023-05-05T06:58:18.703Z,36.34
2023-05-05T07:01:20.050Z,36.43
2023-05-05T07:04:21.329Z,36.45
2023-05-05T07:07:23.424Z,36.40
2023-05-05T07:10:26.133Z,36.72
2023-05-05T07:13:27.428Z,37.77
2023-05-05T07:16:28.882Z,37.30
2023-05-05T07:19:30.156Z,37.14
2023-05-05T07:22:32.123Z,36.85
2023-05-05T07:25:33.836Z,35.81
2023-05-05T07:28:35.297Z,36.49
2023-05-05T07:31:36.752Z,35.63
2023-05-05T07:34:39.621Z,35.13
2023-05-05T07:37:41.754Z,35.09
2023-05-05T07:40:43.085Z,34.13
2023-05-05T07:43:44.814Z,33.57
2023-05-05T07:46:47.599Z,33.50
2023-05-05T07:49:48.996Z,33.02
2023-05-05T07:52:56.326Z,33.05
2023-05-05T07:56:08.155Z,32.33
2023-05-05T07:59:09.496Z,32.11
2023-05-05T08:02:11.938Z,32.20
2023-05-05T08:05:13.367Z,32.06
2023-05-05T08:08:15.331Z,31.74
2023-05-05T08:11:17.081Z,32.08
2023-05-05T08:14:18.324Z,33.51
2023-05-05T08:17:19.655Z,32.77
2023-05-05T08:20:21.558Z,31.91
2023-05-05T08:23:23.536Z,31.04
2023-05-05T08:26:24.860Z,30.96
2023-05-05T08:29:26.132Z,31.32
2023-05-05T08:32:29.679Z,31.10
2023-05-05T08:35:31.124Z,30.43
2023-05-05T08:38:33.073Z,30.54
2023-05-05T08:41:34.419Z,30.42
2023-05-05T08:44:36.343Z,29.96
2023-05-05T08:47:38.604Z,30.62
2023-05-05T08:50:43.375Z,30.49
2023-05-05T08:53:56.147Z,30.54
2023-05-05T08:57:01.070Z,30.20
2023-05-05T09:00:03.224Z,29.74
2023-05-05T09:03:05.939Z,29.75
2023-05-05T09:06:08.774Z,29.35
2023-05-05T09:09:11.382Z,29.26
2023-05-05T09:12:12.764Z,28.64
2023-05-05T09:15:14.934Z,28.70
2023-05-05T09:18:16.249Z,28.83
2023-05-05T09:21:21.218Z,29.30
2023-05-05T09:24:23.185Z,29.06
2023-05-05T09:27:24.539Z,28.57
2023-05-05T09:30:26.639Z,28.08
2023-05-05T09:33:31.302Z,28.42
2023-05-05T09:36:42.909Z,28.55
2023-05-05T09:39:53.970Z,27.08
2023-05-05T09:43:01.472Z,27.51
2023-05-05T09:46:07.010Z,28.98
2023-05-05T09:49:13.656Z,29.28
2023-05-05T09:52:16.039Z,29.13
2023-05-05T09:55:18.695Z,29.31
2023-05-05T09:58:22.923Z,28.47
2023-05-05T10:01:24.440Z,28.85
2023-05-05T10:04:27.410Z,29.30
2023-05-05T10:07:28.690Z,30.15
2023-05-05T10:10:30.856Z,30.37
2023-05-05T10:13:36.293Z,29.67
2023-05-05T10:16:41.487Z,29.08
2023-05-05T10:19:43.806Z,27.91
2023-05-05T10:22:51.041Z,27.98
2023-05-05T10:25:59.018Z,27.68
2023-05-05T10:29:03.653Z,27.95
2023-05-05T10:32:40.792Z,28.20
2023-05-05T10:35:40.080Z,28.18
2023-05-05T10:38:42.772Z,27.54
2023-05-05T10:41:46.616Z,27.74
2023-05-05T10:44:48.413Z,27.53
2023-05-05T10:47:51.364Z,26.88
2023-05-05T10:50:58.980Z,27.05
2023-05-05T10:54:05.834Z,26.82
2023-05-05T10:57:10.599Z,27.10
2023-05-05T11:00:50.412Z,26.96
2023-05-05T11:03:52.006Z,26.02
2023-05-05T11:07:30.155Z,25.76
2023-05-05T11:10:43.777Z,26.46
2023-05-05T11:13:45.840Z,27.66
2023-05-05T11:16:49.106Z,27.33
2023-05-05T11:19:51.850Z,28.27
2023-05-05T11:23:21.381Z,27.09
2023-05-05T11:26:50.727Z,26.83
2023-05-05T11:30:06.314Z,27.37
2023-05-05T11:33:26.821Z,26.90
2023-05-05T11:36:39.638Z,26.41
2023-05-05T11:39:53.920Z,26.95
2023-05-05T11:43:04.453Z,27.10
2023-05-05T11:46:13.312Z,26.93
2023-05-05T11:49:26.107Z,26.78
2023-05-05T11:52:27.479Z,27.11
2023-05-05T11:55:29.870Z,26.85
2023-05-05T11:58:31.298Z,26.87
2023-05-05T12:01:33.321Z,27.54
2023-05-05T12:04:39.475Z,27.62
2023-05-05T12:07:41.057Z,27.84
2023-05-05T12:10:42.388Z,28.44
2023-05-05T12:13:43.771Z,26.51
2023-05-05T12:16:55.091Z,26.36
2023-05-05T12:19:56.567Z,26.16
2023-05-05T12:23:02.270Z,26.59
2023-05-05T12:26:03.998Z,26.57
2023-05-05T12:29:05.597Z,26.89
2023-05-05T12:32:18.615Z,27.67
2023-05-05T12:35:21.133Z,27.50
2023-05-05T12:41:43.422Z,27.22
2023-05-05T12:44:46.078Z,27.23
2023-05-05T12:47:48.055Z,27.72
2023-05-05T12:50:49.587Z,27.02
2023-05-05T12:54:01.902Z,28.28
2023-05-05T12:57:11.157Z,28.25
2023-05-05T13:00:14.649Z,27.66
2023-05-05T13:03:20.077Z,27.63
2023-05-05T13:06:23.920Z,27.44
2023-05-05T13:09:26.676Z,28.55
2023-05-05T13:12:28.065Z,28.88
2023-05-05T13:15:29.403Z,29.13
2023-05-05T13:18:31.496Z,29.31
2023-05-05T13:21:32.831Z,29.37
2023-05-05T13:24:49.686Z,29.30
2023-05-05T13:27:52.592Z,29.46
2023-05-05T13:30:54.086Z,29.88
2023-05-05T13:33:56.025Z,29.76
2023-05-05T13:36:57.431Z,29.92
2023-05-05T13:39:59.565Z,29.89
2023-05-05T13:43:00.961Z,30.52
2023-05-05T13:46:12.504Z,30.14
2023-05-05T13:49:21.044Z,29.60
2023-05-05T13:52:22.523Z,30.05
2023-05-05T13:55:23.855Z,29.86
2023-05-05T13:58:25.258Z,29.99
2023-05-05T14:01:26.722Z,30.67
2023-05-05T14:04:28.772Z,30.75
2023-05-05T14:07:30.060Z,30.62
2023-05-05T14:10:31.506Z,30.10
2023-05-05T14:13:32.956Z,30.66
2023-05-05T14:16:34.474Z,30.49
2023-05-05T14:19:36.659Z,30.01
2023-05-05T14:22:37.885Z,30.18
2023-05-05T14:25:39.314Z,30.18
2023-05-05T14:28:41.441Z,30.17
2023-05-05T14:31:42.962Z,30.66
2023-05-05T14:34:45.056Z,30.56
2023-05-05T14:37:46.364Z,31.28
2023-05-05T14:40:47.774Z,30.88
2023-05-05T14:43:49.087Z,31.48
2023-05-05T14:46:51.264Z,30.89
2023-05-05T14:49:53.310Z,31.66
2023-05-05T14:52:54.681Z,31.73
2023-05-05T14:55:56.123Z,31.13
2023-05-05T14:58:57.536Z,31.16
2023-05-05T15:01:58.920Z,31.68
2023-05-05T15:05:01.147Z,32.03
2023-05-05T15:08:02.475Z,31.64
2023-05-05T15:11:04.013Z,31.75
2023-05-05T15:14:05.486Z,31.64
2023-05-05T15:17:06.746Z,31.46
2023-05-05T15:20:09.776Z,31.49
2023-05-05T15:23:38.867Z,32.09
2023-05-05T15:26:40.178Z,31.81
2023-05-05T15:29:41.485Z,31.62
2023-05-05T15:32:43.020Z,32.08
2023-05-05T15:35:45.335Z,32.31
2023-05-05T15:38:46.589Z,31.74
2023-05-05T15:41:48.083Z,32.81
2023-05-05T15:44:49.738Z,33.78
2023-05-05T15:47:52.343Z,33.65
2023-05-05T15:50:54.344Z,33.36
2023-05-05T15:53:55.747Z,33.13
2023-05-05T15:56:57.215Z,33.58
2023-05-05T15:59:58.592Z,33.76
2023-05-05T16:03:00.244Z,34.35
2023-05-05T16:06:02.222Z,34.90
2023-05-05T16:09:03.761Z,34.72
2023-05-05T16:12:05.955Z,34.62
2023-05-05T16:15:08.514Z,34.04
2023-05-05T16:18:10.225Z,34.46
2023-05-05T16:21:12.416Z,34.55
2023-05-05T16:24:15.712Z,35.15
2023-05-05T16:27:17.137Z,35.32
2023-05-05T16:30:18.451Z,35.23
2023-05-05T16:33:19.877Z,35.08
2023-05-05T16:36:21.808Z,35.41
2023-05-05T16:39:23.085Z,36.19
2023-05-05T16:42:24.321Z,35.78
2023-05-05T16:45:25.669Z,36.05
2023-05-05T16:48:27.153Z,36.53
2023-05-05T16:51:29.300Z,36.72
2023-05-05T16:54:30.722Z,36.83
2023-05-05T16:57:32.019Z,37.25
2023-05-05T17:00:33.449Z,37.08
2023-05-05T17:03:35.107Z,37.01
2023-05-05T17:06:37.174Z,36.99
2023-05-05T17:09:38.469Z,36.84
2023-05-05T17:12:39.882Z,37.02
2023-05-05T17:15:42.903Z,37.67
2023-05-05T17:18:44.187Z,37.92
2023-05-05T17:21:46.257Z,37.95
2023-05-05T17:24:47.522Z,37.64
2023-05-05T17:27:48.962Z,37.98
2023-05-05T17:30:50.469Z,38.51
2023-05-05T17:33:51.725Z,38.47
2023-05-05T17:36:53.737Z,38.71
2023-05-05T17:39:55.035Z,38.90
2023-05-05T17:42:56.314Z,38.86
2023-05-05T17:45:57.660Z,38.97
2023-05-05T17:48:59.747Z,39.24
2023-05-05T17:52:02.100Z,39.23
2023-05-05T17:55:03.731Z,39.39
2023-05-05T17:58:05.079Z,39.84
2023-05-05T18:01:06.381Z,40.17
2023-05-05T18:04:07.710Z,40.19
2023-05-05T18:07:11.536Z,40.45
2023-05-05T18:10:12.885Z,40.51
2023-05-05T18:13:14.441Z,40.95
2023-05-05T18:16:15.926Z,41.07
2023-05-05T18:19:18.585Z,41.21
2023-05-05T18:22:21.462Z,41.62
2023-05-05T18:25:23.113Z,41.91
2023-05-05T18:28:24.593Z,42.03
2023-05-05T18:31:26.541Z,41.94
2023-05-05T18:34:28.670Z,42.05
2023-05-05T18:37:30.764Z,43.05
2023-05-05T18:40:32.066Z,43.12
2023-05-05T18:43:33.388Z,43.32
2023-05-05T18:46:34.753Z,43.50
2023-05-05T18:49:36.707Z,44.04
2023-05-05T18:52:38.636Z,44.25
2023-05-05T18:55:41.936Z,44.62
2023-05-05T18:58:43.216Z,45.33
2023-05-05T19:01:44.880Z,45.44
2023-05-05T19:04:46.189Z,45.34
2023-05-05T19:07:48.237Z,46.36
2023-05-05T19:10:49.585Z,45.57
2023-05-05T19:13:51.399Z,45.46
2023-05-05T19:16:54.845Z,45.03
2023-05-05T19:19:56.231Z,45.42
2023-05-05T19:23:02.710Z,45.15
2023-05-05T19:26:05.036Z,44.78
2023-05-05T19:29:06.336Z,45.88
2023-05-05T19:32:07.964Z,45.67
2023-05-05T19:35:09.598Z,45.53
2023-05-05T19:38:12.032Z,45.12
2023-05-05T19:41:13.351Z,45.59
2023-05-05T19:44:14.720Z,44.83
2023-05-05T19:47:17.475Z,44.42
2023-05-05T19:50:18.932Z,44.98
2023-05-05T19:53:20.935Z,44.81
2023-05-05T19:56:23.145Z,44.86
2023-05-05T19:59:24.627Z,44.83
2023-05-05T20:02:26.381Z,45.46
2023-05-05T20:05:27.861Z,45.15
2023-05-05T20:08:29.946Z,45.69
2023-05-05T20:11:31.423Z,45.10
2023-05-05T20:14:32.829Z,45.53
2023-05-05T20:17:34.133Z,45.94
2023-05-05T20:20:35.609Z,45.73
2023-05-05T20:23:37.649Z,45.87
2023-05-05T20:26:39.093Z,45.91
2023-05-05T20:29:40.943Z,45.84
2023-05-05T20:32:42.275Z,46.02
2023-05-05T20:35:43.727Z,46.07
2023-05-05T20:38:45.671Z,46.40
2023-05-05T20:41:47.168Z,46.33
2023-05-05T20:44:48.433Z,46.97
2023-05-05T20:47:49.870Z,46.80
2023-05-05T20:50:51.434Z,46.42
2023-05-05T20:53:53.441Z,47.07
2023-05-05T20:56:57.464Z,47.38
2023-05-05T20:59:58.688Z,47.50
2023-05-05T21:03:01.920Z,46.97
2023-05-05T21:06:03.470Z,46.88
2023-05-05T21:09:06.011Z,47.50
2023-05-05T21:12:07.488Z,47.25
2023-05-05T21:15:10.550Z,47.14
2023-05-05T21:18:12.138Z,47.01
2023-05-05T21:21:13.416Z,46.57
2023-05-05T21:24:15.748Z,46.54
2023-05-05T21:27:17.398Z,46.43
2023-05-05T21:30:18.867Z,46.21
2023-05-05T21:33:20.720Z,47.10
2023-05-05T21:36:22.302Z,46.63
2023-05-05T21:39:24.464Z,46.97
2023-05-05T21:42:26.299Z,46.61
2023-05-05T21:45:27.597Z,46.93
2023-05-05T21:48:28.972Z,46.99
2023-05-05T21:51:30.558Z,46.93
2023-05-05T21:54:32.485Z,46.99
2023-05-05T21:57:33.765Z,46.72
2023-05-05T22:00:35.127Z,47.95
2023-05-05T22:03:36.681Z,48.23
2023-05-05T22:06:38.192Z,48.68
2023-05-05T22:09:40.165Z,49.82
2023-05-05T22:12:41.667Z,48.99
2023-05-05T22:15:47.206Z,49.90
2023-05-05T22:18:49.503Z,49.80
2023-05-05T22:21:50.798Z,51.43
2023-05-05T22:24:52.924Z,51.50
2023-05-05T22:27:54.996Z,50.82
2023-05-05T22:30:56.623Z,51.42
2023-05-05T22:33:58.572Z,52.54
2023-05-05T22:36:59.939Z,52.69
2023-05-05T22:40:02.043Z,53.23
2023-05-05T22:43:03.456Z,54.19
2023-05-05T22:46:05.216Z,53.77
2023-05-05T22:49:06.552Z,55.17
2023-05-05T22:52:08.072Z,56.90
2023-05-05T22:55:12.284Z,56.70
2023-05-05T22:58:13.645Z,56.78
2023-05-05T23:01:15.125Z,57.77
2023-05-05T23:04:16.462Z,58.29
2023-05-05T23:07:18.128Z,59.66
2023-05-05T23:10:20.276Z,58.43
2023-05-05T23:13:21.677Z,60.10
2023-05-05T23:16:23.205Z,60.62
2023-05-05T23:19:24.556Z,61.02
2023-05-05T23:22:26.100Z,62.09
2023-05-05T23:25:28.043Z,63.17
2023-05-05T23:31:50.305Z,62.97
2023-05-05T23:34:51.796Z,61.43
2023-05-05T23:37:53.091Z,64.73
2023-05-05T23:40:55.174Z,63.80
2023-05-05T23:43:56.701Z,64.84
2023-05-05T23:46:58.005Z,64.06
2023-05-05T23:49:59.632Z,66.10
2023-05-05T23:53:00.874Z,68.04
2023-05-05T23:56:03.005Z,68.18
2023-05-05T23:59:04.651Z,67.45
